TRADE65 KBFI-KSAN
Flight info
| Callsign | TRADE65 |
|---|---|
| Flight time | 2h 0m |
| Altitude | 47000 |
| Route | KENT1 ZIGED TAOMA J5 LANDO HUULK COMIX2 |
| Aircraft | C750/M-SBDE3FGHRWXY/S |
Departure
| Time | 2026-05-05 22:58 |
|---|---|
| Airport | King County International Airport - Boeing Field (KBFI) |
Arrival
| Time | 2026-05-06 00:58 |
|---|---|
| Airport | San Diego International Airport (KSAN) |
| Time | Latitude | Longitude | Altitude | Speed | Heading |
|---|---|---|---|---|---|
| 2026-05-05 22:40 | 47.53769 | -122.30513 | 24 ft | 0 kts | 143° |
| 2026-05-05 22:54 | 47.53767 | -122.30512 | 24 ft | 1 kts | 151° |
| 2026-05-05 22:54 | 47.53762 | -122.30518 | 26 ft | 1 kts | 228° |
| 2026-05-05 22:54 | 47.53755 | -122.30551 | 24 ft | 5 kts | 265° |
| 2026-05-05 22:54 | 47.53781 | -122.30614 | 26 ft | 9 kts | 315° |
| 2026-05-05 22:55 | 47.53841 | -122.30686 | 26 ft | 13 kts | 324° |
| 2026-05-05 22:55 | 47.53930 | -122.30763 | 26 ft | 17 kts | 330° |
| 2026-05-05 22:55 | 47.54038 | -122.30856 | 24 ft | 18 kts | 326° |
| 2026-05-05 22:55 | 47.54080 | -122.30909 | 25 ft | 0 kts | 320° |
| 2026-05-05 22:56 | 47.54102 | -122.30939 | 25 ft | 8 kts | 304° |
| 2026-05-05 22:56 | 47.54080 | -122.31044 | 25 ft | 15 kts | 243° |
| 2026-05-05 22:56 | 47.54007 | -122.31096 | 25 ft | 13 kts | 145° |
| 2026-05-05 22:57 | 47.53798 | -122.30920 | 23 ft | 76 kts | 149° |
| 2026-05-05 22:57 | 47.53116 | -122.30343 | 25 ft | 143 kts | 150° |
| 2026-05-05 22:57 | 47.52196 | -122.29551 | 220 ft | 163 kts | 152° |
| 2026-05-05 22:57 | 47.51133 | -122.28632 | 466 ft | 190 kts | 152° |
| 2026-05-05 22:58 | 47.49905 | -122.27646 | 768 ft | 212 kts | 155° |
| 2026-05-05 22:58 | 47.48543 | -122.26588 | 1110 ft | 227 kts | 149° |
| 2026-05-05 22:58 | 47.47196 | -122.25338 | 1457 ft | 231 kts | 150° |
| 2026-05-05 22:58 | 47.45797 | -122.24124 | 1729 ft | 238 kts | 152° |
| 2026-05-05 22:59 | 47.44300 | -122.22893 | 1821 ft | 253 kts | 152° |
| 2026-05-05 22:59 | 47.42724 | -122.21582 | 2067 ft | 257 kts | 152° |
| 2026-05-05 22:59 | 47.41185 | -122.20283 | 2402 ft | 261 kts | 152° |
| 2026-05-05 22:59 | 47.39610 | -122.18961 | 3082 ft | 261 kts | 151° |
| 2026-05-05 23:00 | 47.36384 | -122.16259 | 4182 ft | 272 kts | 150° |
| 2026-05-05 23:00 | 47.34673 | -122.15006 | 4619 ft | 280 kts | 163° |
| 2026-05-05 23:00 | 47.32728 | -122.14720 | 5155 ft | 281 kts | 181° |
| 2026-05-05 23:01 | 47.30754 | -122.14777 | 5775 ft | 281 kts | 181° |
| 2026-05-05 23:01 | 47.28813 | -122.14670 | 6221 ft | 286 kts | 176° |
| 2026-05-05 23:01 | 47.26823 | -122.14379 | 6899 ft | 287 kts | 174° |
| 2026-05-05 23:01 | 47.24835 | -122.14120 | 7755 ft | 288 kts | 176° |
| 2026-05-05 23:02 | 47.22811 | -122.13924 | 8544 ft | 294 kts | 176° |
| 2026-05-05 23:02 | 47.20771 | -122.13721 | 9437 ft | 295 kts | 176° |
| 2026-05-05 23:02 | 47.18705 | -122.13490 | 10115 ft | 301 kts | 176° |
| 2026-05-05 23:02 | 47.16556 | -122.13248 | 10338 ft | 322 kts | 176° |
| 2026-05-05 23:03 | 47.14226 | -122.12999 | 10347 ft | 348 kts | 176° |
| 2026-05-05 23:03 | 47.11750 | -122.12735 | 10583 ft | 361 kts | 175° |
| 2026-05-05 23:03 | 47.09234 | -122.12462 | 11144 ft | 365 kts | 175° |
| 2026-05-05 23:03 | 47.06697 | -122.12187 | 11700 ft | 367 kts | 175° |
| 2026-05-05 23:04 | 47.04127 | -122.11910 | 12278 ft | 372 kts | 175° |
| 2026-05-05 23:04 | 47.01535 | -122.11632 | 12980 ft | 376 kts | 175° |
| 2026-05-05 23:04 | 46.98907 | -122.11348 | 13614 ft | 382 kts | 175° |
| 2026-05-05 23:04 | 46.96235 | -122.11060 | 14206 ft | 387 kts | 175° |
| 2026-05-05 23:05 | 46.93534 | -122.10769 | 14787 ft | 392 kts | 175° |
| 2026-05-05 23:05 | 46.90829 | -122.10184 | 15274 ft | 396 kts | 165° |
| 2026-05-05 23:05 | 46.88162 | -122.09118 | 15900 ft | 399 kts | 162° |
| 2026-05-05 23:05 | 46.85474 | -122.08005 | 16516 ft | 404 kts | 163° |
| 2026-05-05 23:06 | 46.82742 | -122.06950 | 17074 ft | 409 kts | 164° |
| 2026-05-05 23:06 | 46.79973 | -122.05907 | 17692 ft | 414 kts | 163° |
| 2026-05-05 23:06 | 46.77177 | -122.04816 | 18326 ft | 419 kts | 163° |
| 2026-05-05 23:06 | 46.74348 | -122.03695 | 18849 ft | 424 kts | 163° |
| 2026-05-05 23:07 | 46.71486 | -122.02581 | 19437 ft | 428 kts | 163° |
| 2026-05-05 23:07 | 46.68592 | -122.01470 | 20063 ft | 432 kts | 163° |
| 2026-05-05 23:07 | 46.65666 | -122.00340 | 20659 ft | 436 kts | 163° |
| 2026-05-05 23:07 | 46.62728 | -121.99195 | 21332 ft | 439 kts | 163° |
| 2026-05-05 23:08 | 46.59760 | -121.98042 | 21915 ft | 444 kts | 163° |
| 2026-05-05 23:08 | 46.56768 | -121.96895 | 22532 ft | 448 kts | 164° |
| 2026-05-05 23:08 | 46.53741 | -121.95732 | 23079 ft | 452 kts | 164° |
| 2026-05-05 23:08 | 46.50690 | -121.94548 | 23633 ft | 457 kts | 164° |
| 2026-05-05 23:09 | 46.47606 | -121.93358 | 24133 ft | 460 kts | 164° |
| 2026-05-05 23:09 | 46.44502 | -121.92169 | 24670 ft | 462 kts | 164° |
| 2026-05-05 23:09 | 46.41382 | -121.90975 | 25212 ft | 465 kts | 164° |
| 2026-05-05 23:09 | 46.38245 | -121.89770 | 25727 ft | 468 kts | 164° |
| 2026-05-05 23:10 | 46.35087 | -121.88556 | 26229 ft | 472 kts | 164° |
| 2026-05-05 23:10 | 46.31907 | -121.87341 | 26763 ft | 474 kts | 164° |
| 2026-05-05 23:10 | 46.28710 | -121.86123 | 27295 ft | 477 kts | 164° |
| 2026-05-05 23:10 | 46.25485 | -121.84890 | 27778 ft | 480 kts | 164° |
| 2026-05-05 23:11 | 46.22248 | -121.83652 | 28289 ft | 483 kts | 164° |
| 2026-05-05 23:11 | 46.18986 | -121.82414 | 28755 ft | 487 kts | 165° |
| 2026-05-05 23:11 | 46.15696 | -121.81165 | 29250 ft | 490 kts | 165° |
| 2026-05-05 23:11 | 46.12387 | -121.79905 | 29742 ft | 493 kts | 165° |
| 2026-05-05 23:12 | 46.09063 | -121.78642 | 30262 ft | 495 kts | 165° |
| 2026-05-05 23:12 | 46.05761 | -121.77394 | 30610 ft | 499 kts | 165° |
| 2026-05-05 23:12 | 46.02394 | -121.76121 | 30993 ft | 502 kts | 164° |
| 2026-05-05 23:12 | 45.99012 | -121.74841 | 31508 ft | 502 kts | 164° |
| 2026-05-05 23:13 | 45.95631 | -121.73564 | 32052 ft | 502 kts | 164° |
| 2026-05-05 23:13 | 45.92258 | -121.72295 | 32567 ft | 502 kts | 164° |
| 2026-05-05 23:13 | 45.88879 | -121.71023 | 33095 ft | 502 kts | 164° |
| 2026-05-05 23:13 | 45.85499 | -121.69751 | 33637 ft | 503 kts | 164° |
| 2026-05-05 23:14 | 45.82118 | -121.68481 | 34143 ft | 503 kts | 164° |
| 2026-05-05 23:14 | 45.78730 | -121.67211 | 34600 ft | 503 kts | 164° |
| 2026-05-05 23:14 | 45.75350 | -121.65945 | 35102 ft | 502 kts | 164° |
| 2026-05-05 23:14 | 45.71976 | -121.64682 | 35572 ft | 502 kts | 164° |
| 2026-05-05 23:15 | 45.68595 | -121.63419 | 36101 ft | 501 kts | 164° |
| 2026-05-05 23:15 | 45.65224 | -121.62161 | 36586 ft | 501 kts | 164° |
| 2026-05-05 23:15 | 45.61854 | -121.60904 | 37132 ft | 500 kts | 163° |
| 2026-05-05 23:15 | 45.58484 | -121.59650 | 37582 ft | 501 kts | 163° |
| 2026-05-05 23:16 | 45.55116 | -121.58398 | 38176 ft | 498 kts | 163° |
| 2026-05-05 23:16 | 45.51769 | -121.57156 | 38715 ft | 497 kts | 163° |
| 2026-05-05 23:16 | 45.48424 | -121.55915 | 39130 ft | 496 kts | 163° |
| 2026-05-05 23:16 | 45.45086 | -121.54676 | 39587 ft | 495 kts | 163° |
| 2026-05-05 23:17 | 45.41756 | -121.53446 | 40057 ft | 494 kts | 164° |
| 2026-05-05 23:17 | 45.38436 | -121.52220 | 40503 ft | 493 kts | 163° |
| 2026-05-05 23:17 | 45.35117 | -121.50994 | 40943 ft | 492 kts | 164° |
| 2026-05-05 23:17 | 45.31808 | -121.49774 | 41358 ft | 491 kts | 164° |
| 2026-05-05 23:18 | 45.28508 | -121.48558 | 41809 ft | 490 kts | 164° |
| 2026-05-05 23:18 | 45.25207 | -121.47345 | 42259 ft | 489 kts | 164° |
| 2026-05-05 23:18 | 45.21920 | -121.46138 | 42664 ft | 488 kts | 164° |
| 2026-05-05 23:18 | 45.18636 | -121.44933 | 43055 ft | 488 kts | 164° |
| 2026-05-05 23:19 | 45.15355 | -121.43730 | 43416 ft | 487 kts | 164° |
| 2026-05-05 23:19 | 45.12075 | -121.42530 | 43814 ft | 486 kts | 164° |
| 2026-05-05 23:19 | 45.08801 | -121.41333 | 44196 ft | 485 kts | 164° |
| 2026-05-05 23:19 | 45.05532 | -121.40140 | 44565 ft | 484 kts | 164° |
| 2026-05-05 23:20 | 45.02271 | -121.38950 | 44906 ft | 483 kts | 164° |
| 2026-05-05 23:20 | 44.99004 | -121.37759 | 44926 ft | 489 kts | 164° |
| 2026-05-05 23:20 | 44.92328 | -121.35332 | 44936 ft | 501 kts | 164° |
| 2026-05-05 23:21 | 44.85509 | -121.32859 | 44946 ft | 511 kts | 164° |
| 2026-05-05 23:21 | 44.78548 | -121.30339 | 44948 ft | 521 kts | 164° |
| 2026-05-05 23:22 | 44.71478 | -121.27790 | 44935 ft | 528 kts | 166° |
| 2026-05-05 23:22 | 44.64324 | -121.25254 | 44933 ft | 533 kts | 166° |
| 2026-05-05 23:23 | 44.57108 | -121.22626 | 44940 ft | 537 kts | 166° |
| 2026-05-05 23:23 | 44.49847 | -121.20047 | 44936 ft | 540 kts | 166° |
| 2026-05-05 23:24 | 44.42562 | -121.17430 | 44938 ft | 541 kts | 166° |
| 2026-05-05 23:24 | 44.35269 | -121.14840 | 44931 ft | 541 kts | 166° |
| 2026-05-05 23:25 | 44.28070 | -121.12275 | 44968 ft | 533 kts | 166° |
| 2026-05-05 23:25 | 44.20866 | -121.09719 | 44979 ft | 536 kts | 164° |
| 2026-05-05 23:26 | 44.13615 | -121.07118 | 44997 ft | 539 kts | 165° |
| 2026-05-05 23:26 | 44.06318 | -121.04580 | 44979 ft | 542 kts | 164° |
| 2026-05-05 23:27 | 43.99006 | -121.01986 | 44974 ft | 542 kts | 164° |
| 2026-05-05 23:27 | 43.91713 | -120.99443 | 44973 ft | 539 kts | 164° |
| 2026-05-05 23:28 | 43.84484 | -120.96903 | 44945 ft | 540 kts | 164° |
| 2026-05-05 23:28 | 43.77183 | -120.94359 | 44952 ft | 541 kts | 164° |
| 2026-05-05 23:29 | 43.71072 | -120.92228 | 44938 ft | 541 kts | 164° |
| 2026-05-05 23:29 | 43.63772 | -120.89690 | 44934 ft | 541 kts | 164° |
| 2026-05-05 23:30 | 43.56469 | -120.87160 | 44934 ft | 541 kts | 164° |
| 2026-05-05 23:30 | 43.49222 | -120.84652 | 44928 ft | 540 kts | 164° |
| 2026-05-05 23:31 | 43.41931 | -120.82138 | 44928 ft | 540 kts | 164° |
| 2026-05-05 23:31 | 43.34638 | -120.79628 | 44927 ft | 540 kts | 164° |
| 2026-05-05 23:32 | 43.27347 | -120.77126 | 44922 ft | 540 kts | 164° |
| 2026-05-05 23:32 | 43.20043 | -120.74624 | 44920 ft | 541 kts | 164° |
| 2026-05-05 23:33 | 43.12743 | -120.72132 | 44920 ft | 541 kts | 164° |
| 2026-05-05 23:33 | 43.05440 | -120.69642 | 44931 ft | 541 kts | 164° |
| 2026-05-05 23:34 | 42.98130 | -120.67159 | 44922 ft | 541 kts | 164° |
| 2026-05-05 23:34 | 42.90825 | -120.64681 | 44924 ft | 541 kts | 164° |
| 2026-05-05 23:35 | 42.83515 | -120.62209 | 44924 ft | 541 kts | 164° |
| 2026-05-05 23:35 | 42.76213 | -120.59745 | 44925 ft | 541 kts | 164° |
| 2026-05-05 23:36 | 42.68907 | -120.57286 | 44930 ft | 541 kts | 164° |
| 2026-05-05 23:36 | 42.61616 | -120.54839 | 44924 ft | 539 kts | 164° |
| 2026-05-05 23:37 | 42.54328 | -120.52396 | 44909 ft | 539 kts | 164° |
| 2026-05-05 23:37 | 42.47038 | -120.50048 | 44924 ft | 539 kts | 166° |
| 2026-05-05 23:38 | 42.39724 | -120.47834 | 44928 ft | 539 kts | 165° |
| 2026-05-05 23:38 | 42.32403 | -120.45641 | 44937 ft | 539 kts | 166° |
| 2026-05-05 23:39 | 42.25071 | -120.43452 | 44931 ft | 539 kts | 165° |
| 2026-05-05 23:39 | 42.17746 | -120.41262 | 45013 ft | 539 kts | 166° |
| 2026-05-05 23:40 | 42.10422 | -120.39087 | 45014 ft | 539 kts | 166° |
| 2026-05-05 23:40 | 42.03093 | -120.36908 | 44990 ft | 538 kts | 166° |
| 2026-05-05 23:41 | 41.95782 | -120.34745 | 44965 ft | 538 kts | 166° |
| 2026-05-05 23:41 | 41.88469 | -120.32582 | 44949 ft | 538 kts | 166° |
| 2026-05-05 23:42 | 41.81158 | -120.30428 | 44915 ft | 538 kts | 166° |
| 2026-05-05 23:42 | 41.73837 | -120.28273 | 44905 ft | 538 kts | 166° |
| 2026-05-05 23:43 | 41.66513 | -120.26125 | 44893 ft | 539 kts | 166° |
| 2026-05-05 23:43 | 41.59208 | -120.23985 | 44906 ft | 537 kts | 166° |
| 2026-05-05 23:44 | 41.51891 | -120.21849 | 44888 ft | 539 kts | 166° |
| 2026-05-05 23:44 | 41.44565 | -120.19714 | 44910 ft | 538 kts | 166° |
| 2026-05-05 23:45 | 41.37242 | -120.17584 | 44912 ft | 540 kts | 166° |
| 2026-05-05 23:45 | 41.29899 | -120.15454 | 44889 ft | 540 kts | 166° |
| 2026-05-05 23:46 | 41.22560 | -120.13331 | 44893 ft | 540 kts | 166° |
| 2026-05-05 23:46 | 41.15205 | -120.11207 | 44893 ft | 541 kts | 166° |
| 2026-05-05 23:47 | 41.07849 | -120.09086 | 44884 ft | 541 kts | 166° |
| 2026-05-05 23:47 | 41.00489 | -120.06969 | 44881 ft | 542 kts | 166° |
| 2026-05-05 23:48 | 40.93113 | -120.04852 | 44874 ft | 542 kts | 166° |
| 2026-05-05 23:48 | 40.85739 | -120.02740 | 44860 ft | 544 kts | 166° |
| 2026-05-05 23:49 | 40.78327 | -120.00624 | 44863 ft | 544 kts | 166° |
| 2026-05-05 23:49 | 40.70922 | -119.98517 | 44856 ft | 545 kts | 166° |
| 2026-05-05 23:50 | 40.63577 | -119.96430 | 44844 ft | 544 kts | 166° |
| 2026-05-05 23:50 | 40.56157 | -119.94328 | 44840 ft | 545 kts | 166° |
| 2026-05-05 23:51 | 40.48748 | -119.92233 | 44841 ft | 545 kts | 166° |
| 2026-05-05 23:51 | 40.41339 | -119.90143 | 44834 ft | 545 kts | 166° |
| 2026-05-05 23:52 | 40.33926 | -119.88055 | 44837 ft | 545 kts | 166° |
| 2026-05-05 23:52 | 40.26504 | -119.85971 | 44837 ft | 546 kts | 166° |
| 2026-05-05 23:53 | 40.19079 | -119.83891 | 44839 ft | 546 kts | 166° |
| 2026-05-05 23:53 | 40.11649 | -119.81813 | 44843 ft | 546 kts | 166° |
| 2026-05-05 23:54 | 40.04205 | -119.79737 | 44845 ft | 547 kts | 166° |
| 2026-05-05 23:54 | 39.96771 | -119.77667 | 44884 ft | 544 kts | 166° |
| 2026-05-05 23:55 | 39.89383 | -119.75616 | 44920 ft | 544 kts | 166° |
| 2026-05-05 23:55 | 39.81975 | -119.73563 | 44949 ft | 544 kts | 166° |
| 2026-05-05 23:56 | 39.74628 | -119.71529 | 44967 ft | 538 kts | 166° |
| 2026-05-05 23:56 | 39.67289 | -119.69505 | 44975 ft | 540 kts | 166° |
| 2026-05-05 23:57 | 39.59944 | -119.67481 | 44957 ft | 538 kts | 166° |
| 2026-05-05 23:57 | 39.52611 | -119.65525 | 44953 ft | 539 kts | 169° |
| 2026-05-05 23:58 | 39.45151 | -119.64446 | 44972 ft | 540 kts | 173° |
| 2026-05-05 23:58 | 39.37733 | -119.63374 | 44963 ft | 535 kts | 172° |
| 2026-05-05 23:59 | 39.30319 | -119.62278 | 44994 ft | 537 kts | 173° |
| 2026-05-05 23:59 | 39.22897 | -119.61226 | 45012 ft | 536 kts | 172° |
| 2026-05-06 00:00 | 39.15490 | -119.60133 | 45005 ft | 536 kts | 172° |
| 2026-05-06 00:00 | 39.08070 | -119.59081 | 44990 ft | 536 kts | 172° |
| 2026-05-06 00:01 | 39.00651 | -119.58000 | 44995 ft | 538 kts | 173° |
| 2026-05-06 00:01 | 38.93257 | -119.56948 | 44996 ft | 538 kts | 172° |
| 2026-05-06 00:02 | 38.85818 | -119.55875 | 44982 ft | 538 kts | 173° |
| 2026-05-06 00:02 | 38.78377 | -119.54815 | 44972 ft | 538 kts | 172° |
| 2026-05-06 00:03 | 38.70934 | -119.53750 | 44987 ft | 539 kts | 173° |
| 2026-05-06 00:03 | 38.63482 | -119.52689 | 44974 ft | 539 kts | 173° |
| 2026-05-06 00:04 | 38.56023 | -119.51629 | 44981 ft | 539 kts | 173° |
| 2026-05-06 00:04 | 38.48555 | -119.50571 | 44991 ft | 539 kts | 173° |
| 2026-05-06 00:05 | 38.37344 | -119.48985 | 45002 ft | 541 kts | 173° |
| 2026-05-06 00:06 | 38.29865 | -119.47930 | 44997 ft | 541 kts | 173° |
| 2026-05-06 00:06 | 38.22391 | -119.46878 | 44994 ft | 540 kts | 173° |
| 2026-05-06 00:07 | 38.14923 | -119.45829 | 44998 ft | 541 kts | 173° |
| 2026-05-06 00:07 | 38.07447 | -119.44781 | 45012 ft | 540 kts | 173° |
| 2026-05-06 00:08 | 37.99978 | -119.43736 | 45006 ft | 540 kts | 173° |
| 2026-05-06 00:08 | 37.92504 | -119.42692 | 45005 ft | 540 kts | 173° |
| 2026-05-06 00:09 | 37.85035 | -119.41652 | 45006 ft | 539 kts | 173° |
| 2026-05-06 00:09 | 37.77622 | -119.40621 | 45012 ft | 540 kts | 173° |
| 2026-05-06 00:10 | 37.70106 | -119.39577 | 45013 ft | 539 kts | 173° |
| 2026-05-06 00:10 | 37.62694 | -119.38551 | 45027 ft | 539 kts | 173° |
| 2026-05-06 00:11 | 37.55233 | -119.37519 | 45023 ft | 539 kts | 173° |
| 2026-05-06 00:11 | 37.47766 | -119.36489 | 45006 ft | 539 kts | 173° |
| 2026-05-06 00:12 | 37.40344 | -119.35467 | 45016 ft | 537 kts | 174° |
| 2026-05-06 00:12 | 37.32915 | -119.34446 | 45020 ft | 537 kts | 174° |
| 2026-05-06 00:13 | 37.25494 | -119.33428 | 45028 ft | 536 kts | 174° |
| 2026-05-06 00:13 | 37.18085 | -119.32414 | 45038 ft | 536 kts | 174° |
| 2026-05-06 00:14 | 37.10673 | -119.31401 | 45035 ft | 536 kts | 174° |
| 2026-05-06 00:14 | 37.03247 | -119.30389 | 45034 ft | 537 kts | 174° |
| 2026-05-06 00:15 | 36.97068 | -119.29548 | 45029 ft | 537 kts | 174° |
| 2026-05-06 00:15 | 36.89642 | -119.28539 | 45034 ft | 537 kts | 174° |
| 2026-05-06 00:16 | 36.82215 | -119.27532 | 45038 ft | 537 kts | 174° |
| 2026-05-06 00:16 | 36.74791 | -119.26528 | 45037 ft | 537 kts | 174° |
| 2026-05-06 00:17 | 36.67369 | -119.25526 | 45035 ft | 537 kts | 174° |
| 2026-05-06 00:17 | 36.59925 | -119.24523 | 45040 ft | 537 kts | 174° |
| 2026-05-06 00:18 | 36.52579 | -119.23535 | 45034 ft | 535 kts | 174° |
| 2026-05-06 00:18 | 36.45170 | -119.22540 | 45035 ft | 536 kts | 174° |
| 2026-05-06 00:19 | 36.37735 | -119.21544 | 45043 ft | 539 kts | 174° |
| 2026-05-06 00:19 | 36.30288 | -119.20548 | 45043 ft | 538 kts | 174° |
| 2026-05-06 00:20 | 36.22849 | -119.19555 | 45037 ft | 539 kts | 174° |
| 2026-05-06 00:20 | 36.15368 | -119.18559 | 45033 ft | 541 kts | 174° |
| 2026-05-06 00:21 | 36.07888 | -119.17564 | 45036 ft | 540 kts | 174° |
| 2026-05-06 00:21 | 36.00415 | -119.16573 | 45035 ft | 540 kts | 174° |
| 2026-05-06 00:22 | 35.92942 | -119.15583 | 45030 ft | 540 kts | 174° |
| 2026-05-06 00:22 | 35.85460 | -119.14594 | 45015 ft | 540 kts | 174° |
| 2026-05-06 00:23 | 35.77998 | -119.13609 | 45020 ft | 539 kts | 174° |
| 2026-05-06 00:23 | 35.70533 | -119.12627 | 45024 ft | 540 kts | 174° |
| 2026-05-06 00:24 | 35.63068 | -119.11645 | 45023 ft | 539 kts | 174° |
| 2026-05-06 00:24 | 35.55637 | -119.10670 | 45018 ft | 535 kts | 175° |
| 2026-05-06 00:25 | 35.48398 | -119.08561 | 45017 ft | 538 kts | 159° |
| 2026-05-06 00:25 | 35.41916 | -119.04036 | 45027 ft | 538 kts | 142° |
| 2026-05-06 00:26 | 35.36405 | -118.97825 | 45047 ft | 539 kts | 135° |
| 2026-05-06 00:26 | 35.30964 | -118.91523 | 45031 ft | 537 kts | 141° |
| 2026-05-06 00:27 | 35.25050 | -118.85931 | 45039 ft | 538 kts | 142° |
| 2026-05-06 00:27 | 35.19377 | -118.79949 | 45030 ft | 538 kts | 140° |
| 2026-05-06 00:28 | 35.13620 | -118.74203 | 45041 ft | 538 kts | 142° |
| 2026-05-06 00:28 | 35.07878 | -118.68345 | 45052 ft | 538 kts | 140° |
| 2026-05-06 00:29 | 35.01685 | -118.63339 | 45045 ft | 534 kts | 156° |
| 2026-05-06 00:29 | 34.94624 | -118.60690 | 45032 ft | 530 kts | 173° |
| 2026-05-06 00:30 | 34.87307 | -118.60462 | 45037 ft | 525 kts | 186° |
| 2026-05-06 00:30 | 34.80009 | -118.61106 | 45008 ft | 526 kts | 185° |
| 2026-05-06 00:31 | 34.72680 | -118.60829 | 45006 ft | 528 kts | 178° |
| 2026-05-06 00:31 | 34.65340 | -118.60426 | 44995 ft | 527 kts | 182° |
| 2026-05-06 00:32 | 34.58058 | -118.59278 | 44769 ft | 535 kts | 167° |
| 2026-05-06 00:32 | 34.54546 | -118.57798 | 44103 ft | 529 kts | 158° |
| 2026-05-06 00:32 | 34.51314 | -118.55764 | 43464 ft | 518 kts | 150° |
| 2026-05-06 00:32 | 34.48351 | -118.53365 | 42849 ft | 508 kts | 146° |
| 2026-05-06 00:33 | 34.45545 | -118.50875 | 42233 ft | 492 kts | 145° |
| 2026-05-06 00:33 | 34.42806 | -118.48510 | 41642 ft | 479 kts | 148° |
| 2026-05-06 00:33 | 34.39955 | -118.46455 | 41097 ft | 475 kts | 153° |
| 2026-05-06 00:33 | 34.37029 | -118.44589 | 40544 ft | 475 kts | 154° |
| 2026-05-06 00:34 | 34.34129 | -118.42661 | 39979 ft | 477 kts | 150° |
| 2026-05-06 00:34 | 34.31296 | -118.40545 | 39420 ft | 480 kts | 148° |
| 2026-05-06 00:34 | 34.28444 | -118.38417 | 38854 ft | 483 kts | 150° |
| 2026-05-06 00:34 | 34.25525 | -118.36398 | 38226 ft | 483 kts | 152° |
| 2026-05-06 00:35 | 34.22597 | -118.34401 | 37628 ft | 483 kts | 151° |
| 2026-05-06 00:35 | 34.19709 | -118.32340 | 37057 ft | 484 kts | 149° |
| 2026-05-06 00:35 | 34.16818 | -118.30243 | 36478 ft | 485 kts | 150° |
| 2026-05-06 00:35 | 34.13903 | -118.28185 | 35904 ft | 486 kts | 150° |
| 2026-05-06 00:36 | 34.10968 | -118.26149 | 35323 ft | 487 kts | 150° |
| 2026-05-06 00:36 | 34.08045 | -118.24093 | 34739 ft | 487 kts | 149° |
| 2026-05-06 00:36 | 34.05123 | -118.22012 | 34166 ft | 487 kts | 149° |
| 2026-05-06 00:36 | 34.02192 | -118.19941 | 33472 ft | 489 kts | 150° |
| 2026-05-06 00:37 | 33.99256 | -118.17888 | 32894 ft | 488 kts | 150° |
| 2026-05-06 00:37 | 33.96317 | -118.15829 | 32305 ft | 488 kts | 150° |
| 2026-05-06 00:37 | 33.93385 | -118.13763 | 31720 ft | 487 kts | 149° |
| 2026-05-06 00:37 | 33.90460 | -118.11705 | 31137 ft | 487 kts | 149° |
| 2026-05-06 00:38 | 33.87576 | -118.09686 | 30546 ft | 488 kts | 149° |
| 2026-05-06 00:38 | 33.84644 | -118.07648 | 29947 ft | 483 kts | 150° |
| 2026-05-06 00:38 | 33.81703 | -118.05772 | 29346 ft | 476 kts | 152° |
| 2026-05-06 00:38 | 33.78837 | -118.03813 | 28778 ft | 472 kts | 150° |
| 2026-05-06 00:39 | 33.76002 | -118.01857 | 28217 ft | 467 kts | 152° |
| 2026-05-06 00:39 | 33.73168 | -118.00005 | 27708 ft | 462 kts | 153° |
| 2026-05-06 00:39 | 33.70337 | -117.98188 | 27162 ft | 460 kts | 152° |
| 2026-05-06 00:39 | 33.67557 | -117.96346 | 26616 ft | 454 kts | 151° |
| 2026-05-06 00:40 | 33.64819 | -117.94503 | 26084 ft | 450 kts | 151° |
| 2026-05-06 00:40 | 33.62076 | -117.92690 | 25547 ft | 447 kts | 152° |
| 2026-05-06 00:40 | 33.59369 | -117.90926 | 25019 ft | 439 kts | 152° |
| 2026-05-06 00:40 | 33.56689 | -117.89167 | 24503 ft | 439 kts | 152° |
| 2026-05-06 00:41 | 33.54023 | -117.87400 | 23978 ft | 434 kts | 151° |
| 2026-05-06 00:41 | 33.51410 | -117.85630 | 23435 ft | 427 kts | 150° |
| 2026-05-06 00:41 | 33.48847 | -117.83851 | 22910 ft | 425 kts | 150° |
| 2026-05-06 00:41 | 33.46277 | -117.82091 | 22403 ft | 422 kts | 150° |
| 2026-05-06 00:42 | 33.43782 | -117.80263 | 21870 ft | 419 kts | 143° |
| 2026-05-06 00:42 | 33.41556 | -117.77965 | 21410 ft | 425 kts | 138° |
| 2026-05-06 00:42 | 33.39404 | -117.75590 | 20910 ft | 420 kts | 137° |
| 2026-05-06 00:42 | 33.37243 | -117.73237 | 20413 ft | 417 kts | 139° |
| 2026-05-06 00:43 | 33.35083 | -117.70969 | 19923 ft | 413 kts | 139° |
| 2026-05-06 00:43 | 33.32936 | -117.68708 | 19429 ft | 406 kts | 138° |
| 2026-05-06 00:43 | 33.30835 | -117.66448 | 18954 ft | 406 kts | 138° |
| 2026-05-06 00:43 | 33.28731 | -117.64186 | 18464 ft | 402 kts | 138° |
| 2026-05-06 00:44 | 33.26635 | -117.61961 | 17957 ft | 402 kts | 138° |
| 2026-05-06 00:44 | 33.24543 | -117.59746 | 17478 ft | 398 kts | 139° |
| 2026-05-06 00:44 | 33.22461 | -117.57544 | 17004 ft | 399 kts | 139° |
| 2026-05-06 00:44 | 33.20405 | -117.55384 | 16539 ft | 391 kts | 139° |
| 2026-05-06 00:45 | 33.18342 | -117.53218 | 16073 ft | 395 kts | 139° |
| 2026-05-06 00:45 | 33.16300 | -117.51068 | 15609 ft | 394 kts | 139° |
| 2026-05-06 00:45 | 33.14246 | -117.48911 | 15144 ft | 389 kts | 139° |
| 2026-05-06 00:45 | 33.12093 | -117.46997 | 14683 ft | 385 kts | 146° |
| 2026-05-06 00:46 | 33.09892 | -117.45186 | 14226 ft | 382 kts | 146° |
| 2026-05-06 00:46 | 33.07716 | -117.43363 | 13765 ft | 382 kts | 145° |
| 2026-05-06 00:46 | 33.05558 | -117.41552 | 13289 ft | 380 kts | 146° |
| 2026-05-06 00:46 | 33.03417 | -117.39768 | 12849 ft | 366 kts | 146° |
| 2026-05-06 00:47 | 33.01394 | -117.38072 | 12427 ft | 345 kts | 145° |
| 2026-05-06 00:47 | 32.99486 | -117.36464 | 12033 ft | 328 kts | 146° |
| 2026-05-06 00:47 | 32.97668 | -117.34939 | 11654 ft | 313 kts | 146° |
| 2026-05-06 00:47 | 32.95925 | -117.33482 | 11296 ft | 300 kts | 146° |
| 2026-05-06 00:48 | 32.94243 | -117.32074 | 10951 ft | 290 kts | 146° |
| 2026-05-06 00:48 | 32.92614 | -117.30709 | 10557 ft | 284 kts | 146° |
| 2026-05-06 00:48 | 32.91013 | -117.29369 | 10218 ft | 279 kts | 146° |
| 2026-05-06 00:48 | 32.89431 | -117.28055 | 9885 ft | 275 kts | 146° |
| 2026-05-06 00:49 | 32.87862 | -117.26754 | 9546 ft | 276 kts | 146° |
| 2026-05-06 00:49 | 32.86289 | -117.25447 | 9221 ft | 274 kts | 146° |
| 2026-05-06 00:49 | 32.84724 | -117.24146 | 8899 ft | 276 kts | 146° |
| 2026-05-06 00:49 | 32.83155 | -117.22842 | 8580 ft | 273 kts | 146° |
| 2026-05-06 00:50 | 32.81667 | -117.21469 | 8213 ft | 270 kts | 134° |
| 2026-05-06 00:50 | 32.80792 | -117.19513 | 7872 ft | 266 kts | 107° |
| 2026-05-06 00:50 | 32.80316 | -117.17403 | 7603 ft | 264 kts | 103° |
| 2026-05-06 00:50 | 32.79869 | -117.15293 | 7304 ft | 264 kts | 104° |
| 2026-05-06 00:51 | 32.79405 | -117.13206 | 6994 ft | 259 kts | 105° |
| 2026-05-06 00:51 | 32.78938 | -117.11145 | 6682 ft | 256 kts | 105° |
| 2026-05-06 00:51 | 32.78493 | -117.09154 | 6369 ft | 242 kts | 105° |
| 2026-05-06 00:51 | 32.78071 | -117.07263 | 6062 ft | 233 kts | 105° |
| 2026-05-06 00:52 | 32.77593 | -117.05457 | 5967 ft | 224 kts | 110° |
| 2026-05-06 00:52 | 32.77163 | -117.03643 | 5963 ft | 230 kts | 105° |
| 2026-05-06 00:52 | 32.76765 | -117.01797 | 5970 ft | 231 kts | 105° |
| 2026-05-06 00:52 | 32.76321 | -116.99959 | 5970 ft | 234 kts | 107° |
| 2026-05-06 00:53 | 32.75845 | -116.98128 | 5969 ft | 232 kts | 110° |
| 2026-05-06 00:53 | 32.74941 | -116.96583 | 5943 ft | 229 kts | 138° |
| 2026-05-06 00:53 | 32.73574 | -116.95636 | 5947 ft | 228 kts | 163° |
| 2026-05-06 00:53 | 32.72014 | -116.95472 | 5955 ft | 226 kts | 188° |
| 2026-05-06 00:54 | 32.70550 | -116.96093 | 5960 ft | 224 kts | 212° |
| 2026-05-06 00:54 | 32.69451 | -116.97357 | 5956 ft | 223 kts | 236° |
| 2026-05-06 00:54 | 32.68877 | -116.99093 | 5956 ft | 225 kts | 260° |
| 2026-05-06 00:54 | 32.68960 | -117.00897 | 5956 ft | 224 kts | 283° |
| 2026-05-06 00:55 | 32.69396 | -117.02674 | 5980 ft | 222 kts | 285° |
| 2026-05-06 00:55 | 32.69830 | -117.04450 | 5976 ft | 225 kts | 285° |
| 2026-05-06 00:55 | 32.70266 | -117.06250 | 5553 ft | 227 kts | 285° |
| 2026-05-06 00:55 | 32.70700 | -117.08028 | 4918 ft | 221 kts | 285° |
| 2026-05-06 00:56 | 32.71117 | -117.09736 | 4251 ft | 213 kts | 285° |
| 2026-05-06 00:56 | 32.71513 | -117.11361 | 3578 ft | 190 kts | 285° |
| 2026-05-06 00:56 | 32.71847 | -117.12722 | 2906 ft | 166 kts | 286° |
| 2026-05-06 00:56 | 32.72168 | -117.14000 | 2133 ft | 150 kts | 285° |
| 2026-05-06 00:57 | 32.72430 | -117.15145 | 1280 ft | 138 kts | 283° |
| 2026-05-06 00:57 | 32.72688 | -117.16249 | 648 ft | 140 kts | 286° |
| 2026-05-06 00:57 | 32.72962 | -117.17328 | 243 ft | 130 kts | 283° |
| 2026-05-06 00:57 | 32.73196 | -117.18272 | 21 ft | 112 kts | 285° |
| 2026-05-06 00:58 | 32.73351 | -117.18963 | 20 ft | 47 kts | 289° |
| 2026-05-06 00:58 | 32.73443 | -117.19088 | 16 ft | 3 kts | 17° |
| 2026-05-06 00:59 | 32.73444 | -117.19087 | 16 ft | 1 kts | 17° |
| 2026-05-06 00:59 | 32.73471 | -117.19070 | 16 ft | 8 kts | 38° |
| 2026-05-06 00:59 | 32.73474 | -117.18980 | 15 ft | 15 kts | 105° |
| 2026-05-06 01:00 | 32.73439 | -117.18837 | 15 ft | 21 kts | 106° |
| 2026-05-06 01:00 | 32.73392 | -117.18640 | 15 ft | 28 kts | 106° |
| 2026-05-06 01:00 | 32.73335 | -117.18407 | 17 ft | 29 kts | 106° |
| 2026-05-06 01:00 | 32.73279 | -117.18175 | 16 ft | 29 kts | 106° |
| 2026-05-06 01:01 | 32.73250 | -117.17991 | 17 ft | 14 kts | 53° |
| 2026-05-06 01:01 | 32.73317 | -117.17960 | 19 ft | 8 kts | 16° |
| 2026-05-06 01:01 | 32.73374 | -117.17939 | 18 ft | 10 kts | 22° |
| 2026-05-06 01:01 | 32.73431 | -117.17902 | 16 ft | 2 kts | 94° |
| 2026-05-06 01:02 | 32.73428 | -117.17900 | 16 ft | 1 kts | 131° |
| 2026-05-06 01:02 | 32.73425 | -117.17904 | 16 ft | 0 kts | 227° |
| 2026-05-06 01:02 | 32.73425 | -117.17905 | 16 ft | 0 kts | 229° |